sensor_id;sensor_type;location;lat;lon;timestamp;pressure;altitude;pressure_sealevel;temperature;humidity
79463;BME280;68931;47.286;18.756;2023-04-06T00:00:06;100948.97;;;-1.55;69.18
79463;BME280;68931;47.286;18.756;2023-04-06T00:00:39;100940.41;;;-1.60;68.72
79463;BME280;68931;47.286;18.756;2023-04-06T00:01:10;100973.84;;;-1.46;69.07
79463;BME280;68931;47.286;18.756;2023-04-06T00:01:41;100931.81;;;-1.67;68.86
79463;BME280;68931;47.286;18.756;2023-04-06T00:02:14;100943.00;;;-1.60;69.45
79463;BME280;68931;47.286;18.756;2023-04-06T00:02:45;100953.25;;;-1.49;69.83
79463;BME280;68931;47.286;18.756;2023-04-06T00:03:16;100958.38;;;-1.49;69.16
79463;BME280;68931;47.286;18.756;2023-04-06T00:03:46;100949.84;;;-1.55;70.20
79463;BME280;68931;47.286;18.756;2023-04-06T00:04:17;100929.25;;;-1.67;70.36
79463;BME280;68931;47.286;18.756;2023-04-06T00:04:48;100949.81;;;-1.56;71.28
79463;BME280;68931;47.286;18.756;2023-04-06T00:05:19;100954.13;;;-1.54;71.38
79463;BME280;68931;47.286;18.756;2023-04-06T00:05:50;100948.09;;;-1.57;71.10
79463;BME280;68931;47.286;18.756;2023-04-06T00:06:21;100952.41;;;-1.52;71.43
79463;BME280;68931;47.286;18.756;2023-04-06T00:06:52;100963.53;;;-1.49;70.93
79463;BME280;68931;47.286;18.756;2023-04-06T00:07:23;100942.13;;;-1.64;70.98
79463;BME280;68931;47.286;18.756;2023-04-06T00:07:53;100938.69;;;-1.66;70.41
79463;BME280;68931;47.286;18.756;2023-04-06T00:08:26;100942.97;;;-1.63;70.50
79463;BME280;68931;47.286;18.756;2023-04-06T00:09:00;100920.72;;;-1.76;70.57
79463;BME280;68931;47.286;18.756;2023-04-06T00:09:31;100928.41;;;-1.73;70.30
79463;BME280;68931;47.286;18.756;2023-04-06T00:10:02;100933.56;;;-1.72;70.09
79463;BME280;68931;47.286;18.756;2023-04-06T00:10:33;100959.25;;;-1.57;69.92
79463;BME280;68931;47.286;18.756;2023-04-06T00:11:04;100945.53;;;-1.65;70.49
79463;BME280;68931;47.286;18.756;2023-04-06T00:11:35;100954.13;;;-1.63;70.17
79463;BME280;68931;47.286;18.756;2023-04-06T00:12:06;100949.00;;;-1.67;70.46
79463;BME280;68931;47.286;18.756;2023-04-06T00:12:36;100970.41;;;-1.56;70.34
79463;BME280;68931;47.286;18.756;2023-04-06T00:13:07;100947.28;;;-1.68;70.43
79463;BME280;68931;47.286;18.756;2023-04-06T00:13:41;100941.28;;;-1.70;70.39
79463;BME280;68931;47.286;18.756;2023-04-06T00:14:12;100963.56;;;-1.54;69.51
79463;BME280;68931;47.286;18.756;2023-04-06T00:14:42;100953.28;;;-1.62;70.26
79463;BME280;68931;47.286;18.756;2023-04-06T00:15:13;100960.13;;;-1.55;69.79
79463;BME280;68931;47.286;18.756;2023-04-06T00:15:44;100942.97;;;-1.65;70.88
79463;BME280;68931;47.286;18.756;2023-04-06T00:16:15;100917.28;;;-1.78;70.76
79463;BME280;68931;47.286;18.756;2023-04-06T00:16:48;100940.41;;;-1.65;71.19
79463;BME280;68931;47.286;18.756;2023-04-06T00:17:19;100913.84;;;-1.83;70.84
79463;BME280;68931;47.286;18.756;2023-04-06T00:17:50;100942.13;;;-1.65;70.88
79463;BME280;68931;47.286;18.756;2023-04-06T00:18:23;100954.97;;;-1.56;70.26
79463;BME280;68931;47.286;18.756;2023-04-06T00:18:53;100921.56;;;-1.82;70.58
79463;BME280;68931;47.286;18.756;2023-04-06T00:19:24;100916.41;;;-1.82;70.81
79463;BME280;68931;47.286;18.756;2023-04-06T00:19:55;100919.84;;;-1.80;70.64
79463;BME280;68931;47.286;18.756;2023-04-06T00:20:26;100938.69;;;-1.72;70.74
79463;BME280;68931;47.286;18.756;2023-04-06T00:20:56;100957.56;;;-1.64;71.32
79463;BME280;68931;47.286;18.756;2023-04-06T00:21:27;100948.13;;;-1.74;70.63
79463;BME280;68931;47.286;18.756;2023-04-06T00:21:58;100938.72;;;-1.76;70.71
79463;BME280;68931;47.286;18.756;2023-04-06T00:22:29;100953.25;;;-1.66;71.14
79463;BME280;68931;47.286;18.756;2023-04-06T00:23:00;100912.16;;;-1.87;71.29
79463;BME280;68931;47.286;18.756;2023-04-06T00:23:33;100935.28;;;-1.77;71.31
79463;BME280;68931;47.286;18.756;2023-04-06T00:24:04;100956.72;;;-1.67;71.42
79463;BME280;68931;47.286;18.756;2023-04-06T00:24:34;100949.84;;;-1.74;71.94
79463;BME280;68931;47.286;18.756;2023-04-06T00:25:06;100948.13;;;-1.72;71.65
79463;BME280;68931;47.286;18.756;2023-04-06T00:25:36;100958.41;;;-1.65;72.11
79463;BME280;68931;47.286;18.756;2023-04-06T00:26:08;100951.56;;;-1.70;71.56
79463;BME280;68931;47.286;18.756;2023-04-06T00:26:39;100942.13;;;-1.76;72.14
79463;BME280;68931;47.286;18.756;2023-04-06T00:27:10;100919.84;;;-1.89;71.72
79463;BME280;68931;47.286;18.756;2023-04-06T00:27:41;100937.84;;;-1.83;71.78
79463;BME280;68931;47.286;18.756;2023-04-06T00:28:14;100924.16;;;-1.86;72.26
79463;BME280;68931;47.286;18.756;2023-04-06T00:28:45;100930.13;;;-1.83;71.94
79463;BME280;68931;47.286;18.756;2023-04-06T00:29:16;100903.56;;;-1.97;72.01
79463;BME280;68931;47.286;18.756;2023-04-06T00:29:46;100940.44;;;-1.78;72.36
79463;BME280;68931;47.286;18.756;2023-04-06T00:30:17;100936.13;;;-1.82;72.48
79463;BME280;68931;47.286;18.756;2023-04-06T00:30:48;100929.28;;;-1.82;72.18
79463;BME280;68931;47.286;18.756;2023-04-06T00:31:19;100906.16;;;-1.97;71.69
79463;BME280;68931;47.286;18.756;2023-04-06T00:31:49;100941.28;;;-1.79;72.32
79463;BME280;68931;47.286;18.756;2023-04-06T00:32:20;100912.13;;;-2.00;71.76
79463;BME280;68931;47.286;18.756;2023-04-06T00:32:51;100919.00;;;-1.97;71.94
79463;BME280;68931;47.286;18.756;2023-04-06T00:33:22;100900.16;;;-2.07;71.46
79463;BME280;68931;47.286;18.756;2023-04-06T00:33:53;100900.13;;;-2.08;71.57
79463;BME280;68931;47.286;18.756;2023-04-06T00:34:24;100918.16;;;-1.96;71.59
79463;BME280;68931;47.286;18.756;2023-04-06T00:34:54;100914.72;;;-1.98;71.31
79463;BME280;68931;47.286;18.756;2023-04-06T00:35:25;100912.97;;;-2.01;71.66
79463;BME280;68931;47.286;18.756;2023-04-06T00:35:56;100940.44;;;-1.86;71.39
79463;BME280;68931;47.286;18.756;2023-04-06T00:36:27;100893.28;;;-2.14;71.63
79463;BME280;68931;47.286;18.756;2023-04-06T00:36:57;100905.28;;;-2.08;71.92
79463;BME280;68931;47.286;18.756;2023-04-06T00:37:28;100907.84;;;-2.07;71.79
79463;BME280;68931;47.286;18.756;2023-04-06T00:37:59;100932.69;;;-1.91;71.83
79463;BME280;68931;47.286;18.756;2023-04-06T00:38:30;100923.28;;;-1.96;71.67
79463;BME280;68931;47.286;18.756;2023-04-06T00:39:01;100921.56;;;-1.99;71.78
79463;BME280;68931;47.286;18.756;2023-04-06T00:39:31;100929.28;;;-1.88;72.37
79463;BME280;68931;47.286;18.756;2023-04-06T00:40:02;100909.56;;;-1.98;72.21
79463;BME280;68931;47.286;18.756;2023-04-06T00:40:33;100925.00;;;-1.89;71.90
79463;BME280;68931;47.286;18.756;2023-04-06T00:41:07;100915.59;;;-1.95;72.64
79463;BME280;68931;47.286;18.756;2023-04-06T00:41:39;100928.41;;;-1.93;72.42
79463;BME280;68931;47.286;18.756;2023-04-06T00:42:13;100918.13;;;-2.05;72.50
79463;BME280;68931;47.286;18.756;2023-04-06T00:42:44;100909.56;;;-2.09;72.07
79463;BME280;68931;47.286;18.756;2023-04-06T00:43:18;100899.28;;;-2.16;72.02
79463;BME280;68931;47.286;18.756;2023-04-06T00:43:48;100894.13;;;-2.16;72.35
79463;BME280;68931;47.286;18.756;2023-04-06T00:44:19;100916.44;;;-2.03;72.32
79463;BME280;68931;47.286;18.756;2023-04-06T00:45:00;100907.00;;;-2.09;72.63
79463;BME280;68931;47.286;18.756;2023-04-06T00:45:32;100889.88;;;-2.14;72.47
79463;BME280;68931;47.286;18.756;2023-04-06T00:46:03;100897.56;;;-2.10;72.34
79463;BME280;68931;47.286;18.756;2023-04-06T00:46:34;100916.41;;;-2.02;72.03
79463;BME280;68931;47.286;18.756;2023-04-06T00:47:05;100901.00;;;-2.09;72.20
79463;BME280;68931;47.286;18.756;2023-04-06T00:47:36;100895.84;;;-2.15;72.20
79463;BME280;68931;47.286;18.756;2023-04-06T00:48:07;100908.69;;;-2.11;72.03
79463;BME280;68931;47.286;18.756;2023-04-06T00:48:38;100918.13;;;-2.07;71.89
79463;BME280;68931;47.286;18.756;2023-04-06T00:49:09;100892.44;;;-2.20;71.87
79463;BME280;68931;47.286;18.756;2023-04-06T00:49:40;100924.16;;;-2.03;71.87
79463;BME280;68931;47.286;18.756;2023-04-06T00:50:11;100917.25;;;-2.09;72.49
79463;BME280;68931;47.286;18.756;2023-04-06T00:50:42;100914.69;;;-2.10;72.20
79463;BME280;68931;47.286;18.756;2023-04-06T00:51:12;100921.53;;;-2.09;72.35
79463;BME280;68931;47.286;18.756;2023-04-06T00:51:43;100926.69;;;-2.06;72.00
79463;BME280;68931;47.286;18.756;2023-04-06T00:52:15;100932.72;;;-2.04;72.28
79463;BME280;68931;47.286;18.756;2023-04-06T00:52:50;100905.25;;;-2.19;71.79
79463;BME280;68931;47.286;18.756;2023-04-06T00:53:21;100915.56;;;-2.10;72.28
79463;BME280;68931;47.286;18.756;2023-04-06T00:53:52;100914.69;;;-2.10;71.86
79463;BME280;68931;47.286;18.756;2023-04-06T00:54:23;100900.97;;;-2.18;72.29
79463;BME280;68931;47.286;18.756;2023-04-06T00:54:53;100895.84;;;-2.23;72.62
79463;BME280;68931;47.286;18.756;2023-04-06T00:55:24;100895.88;;;-2.20;72.82
79463;BME280;68931;47.286;18.756;2023-04-06T00:55:55;100901.00;;;-2.21;72.81
79463;BME280;68931;47.286;18.756;2023-04-06T00:56:26;100917.25;;;-2.10;72.64
79463;BME280;68931;47.286;18.756;2023-04-06T00:56:57;100883.84;;;-2.33;72.37
79463;BME280;68931;47.286;18.756;2023-04-06T00:57:28;100918.97;;;-2.18;71.96
79463;BME280;68931;47.286;18.756;2023-04-06T00:57:59;100890.69;;;-2.37;72.03
79463;BME280;68931;47.286;18.756;2023-04-06T00:58:31;100908.69;;;-2.28;72.30
79463;BME280;68931;47.286;18.756;2023-04-06T00:59:02;100909.56;;;-2.21;72.53
79463;BME280;68931;47.286;18.756;2023-04-06T00:59:36;100905.28;;;-2.30;72.78
79463;BME280;68931;47.286;18.756;2023-04-06T01:00:07;100912.09;;;-2.29;72.73
79463;BME280;68931;47.286;18.756;2023-04-06T01:00:37;100872.72;;;-2.49;73.21
79463;BME280;68931;47.286;18.756;2023-04-06T01:01:08;100900.13;;;-2.34;73.53
79463;BME280;68931;47.286;18.756;2023-04-06T01:01:39;100912.09;;;-2.29;73.78
79463;BME280;68931;47.286;18.756;2023-04-06T01:02:10;100913.84;;;-2.29;73.71
79463;BME280;68931;47.286;18.756;2023-04-06T01:02:43;100909.53;;;-2.29;74.03
79463;BME280;68931;47.286;18.756;2023-04-06T01:03:15;100890.72;;;-2.38;74.14
79463;BME280;68931;47.286;18.756;2023-04-06T01:03:46;100924.13;;;-2.20;73.70
79463;BME280;68931;47.286;18.756;2023-04-06T01:04:19;100916.41;;;-2.24;73.49
79463;BME280;68931;47.286;18.756;2023-04-06T01:04:53;100932.69;;;-2.15;73.66
79463;BME280;68931;47.286;18.756;2023-04-06T01:05:27;100932.69;;;-2.16;73.78
79463;BME280;68931;47.286;18.756;2023-04-06T01:05:57;100908.69;;;-2.26;73.49
79463;BME280;68931;47.286;18.756;2023-04-06T01:06:29;100902.69;;;-2.31;72.80
79463;BME280;68931;47.286;18.756;2023-04-06T01:07:00;100900.13;;;-2.33;73.00
79463;BME280;68931;47.286;18.756;2023-04-06T01:07:30;100921.56;;;-2.21;72.70
79463;BME280;68931;47.286;18.756;2023-04-06T01:08:01;100906.13;;;-2.34;72.32
79463;BME280;68931;47.286;18.756;2023-04-06T01:08:32;100908.69;;;-2.32;72.52
79463;BME280;68931;47.286;18.756;2023-04-06T01:09:06;100918.13;;;-2.30;72.94
79463;BME280;68931;47.286;18.756;2023-04-06T01:09:37;100939.53;;;-2.18;72.09
79463;BME280;68931;47.286;18.756;2023-04-06T01:10:08;100914.69;;;-2.38;73.31
79463;BME280;68931;47.286;18.756;2023-04-06T01:10:41;100921.53;;;-2.35;72.75
79463;BME280;68931;47.286;18.756;2023-04-06T01:11:12;100921.56;;;-2.29;72.31
79463;BME280;68931;47.286;18.756;2023-04-06T01:11:43;100898.38;;;-2.44;71.77
79463;BME280;68931;47.286;18.756;2023-04-06T01:12:13;100895.81;;;-2.44;71.53
79463;BME280;68931;47.286;18.756;2023-04-06T01:12:44;100942.13;;;-2.20;71.46
79463;BME280;68931;47.286;18.756;2023-04-06T01:13:15;100936.09;;;-2.28;71.30
79463;BME280;68931;47.286;18.756;2023-04-06T01:13:46;100926.69;;;-2.31;71.56
79463;BME280;68931;47.286;18.756;2023-04-06T01:14:17;100909.53;;;-2.42;72.17
79463;BME280;68931;47.286;18.756;2023-04-06T01:14:48;100934.38;;;-2.26;72.36
79463;BME280;68931;47.286;18.756;2023-04-06T01:15:20;100914.69;;;-2.38;71.76
79463;BME280;68931;47.286;18.756;2023-04-06T01:15:51;100938.69;;;-2.30;72.28
79463;BME280;68931;47.286;18.756;2023-04-06T01:16:22;100921.50;;;-2.43;72.39
79463;BME280;68931;47.286;18.756;2023-04-06T01:16:53;100944.66;;;-2.32;71.98
79463;BME280;68931;47.286;18.756;2023-04-06T01:17:24;100911.25;;;-2.47;72.00
79463;BME280;68931;47.286;18.756;2023-04-06T01:17:54;100915.50;;;-2.43;71.43
79463;BME280;68931;47.286;18.756;2023-04-06T01:18:28;100934.38;;;-2.35;71.61
79463;BME280;68931;47.286;18.756;2023-04-06T01:19:00;100905.25;;;-2.48;71.38
79463;BME280;68931;47.286;18.756;2023-04-06T01:19:30;100927.53;;;-2.39;71.33
79463;BME280;68931;47.286;18.756;2023-04-06T01:20:01;100911.22;;;-2.49;71.31
79463;BME280;68931;47.286;18.756;2023-04-06T01:20:32;100932.66;;;-2.41;71.21
79463;BME280;68931;47.286;18.756;2023-04-06T01:21:03;100940.38;;;-2.38;71.02
79463;BME280;68931;47.286;18.756;2023-04-06T01:21:34;100922.34;;;-2.44;71.47
79463;BME280;68931;47.286;18.756;2023-04-06T01:22:05;100907.78;;;-2.54;70.99
79463;BME280;68931;47.286;18.756;2023-04-06T01:22:36;100895.81;;;-2.58;72.03
79463;BME280;68931;47.286;18.756;2023-04-06T01:23:07;100915.53;;;-2.46;71.62
79463;BME280;68931;47.286;18.756;2023-04-06T01:23:37;100906.94;;;-2.53;71.58
79463;BME280;68931;47.286;18.756;2023-04-06T01:24:09;100914.66;;;-2.44;71.92
79463;BME280;68931;47.286;18.756;2023-04-06T01:24:40;100912.09;;;-2.42;72.39
79463;BME280;68931;47.286;18.756;2023-04-06T01:25:13;100903.53;;;-2.49;71.36
79463;BME280;68931;47.286;18.756;2023-04-06T01:25:44;100915.50;;;-2.37;72.17
79463;BME280;68931;47.286;18.756;2023-04-06T01:26:15;100916.38;;;-2.37;71.76
79463;BME280;68931;47.286;18.756;2023-04-06T01:26:45;100904.41;;;-2.41;72.00
79463;BME280;68931;47.286;18.756;2023-04-06T01:27:16;100929.25;;;-2.32;71.68
79463;BME280;68931;47.286;18.756;2023-04-06T01:27:47;100913.78;;;-2.46;71.56
79463;BME280;68931;47.286;18.756;2023-04-06T01:28:17;100907.81;;;-2.48;71.29
79463;BME280;68931;47.286;18.756;2023-04-06T01:28:48;100914.66;;;-2.45;71.57
79463;BME280;68931;47.286;18.756;2023-04-06T01:29:19;100930.09;;;-2.35;71.39
79463;BME280;68931;47.286;18.756;2023-04-06T01:29:50;100935.22;;;-2.35;71.68
79463;BME280;68931;47.286;18.756;2023-04-06T01:30:21;100906.94;;;-2.51;71.56
79463;BME280;68931;47.286;18.756;2023-04-06T01:30:51;100904.38;;;-2.51;71.47
79463;BME280;68931;47.286;18.756;2023-04-06T01:31:23;100919.81;;;-2.47;71.09
79463;BME280;68931;47.286;18.756;2023-04-06T01:31:53;100903.50;;;-2.56;71.50
79463;BME280;68931;47.286;18.756;2023-04-06T01:32:24;100936.94;;;-2.38;71.32
79463;BME280;68931;47.286;18.756;2023-04-06T01:32:55;100898.34;;;-2.61;70.89
79463;BME280;68931;47.286;18.756;2023-04-06T01:33:26;100924.06;;;-2.43;71.47
79463;BME280;68931;47.286;18.756;2023-04-06T01:33:57;100894.94;;;-2.64;71.42
79463;BME280;68931;47.286;18.756;2023-04-06T01:34:28;100905.22;;;-2.57;71.07
79463;BME280;68931;47.286;18.756;2023-04-06T01:34:58;100917.22;;;-2.50;72.34
79463;BME280;68931;47.286;18.756;2023-04-06T01:35:32;100928.38;;;-2.48;71.91
79463;BME280;68931;47.286;18.756;2023-04-06T01:36:03;100922.34;;;-2.57;71.49
79463;BME280;68931;47.286;18.756;2023-04-06T01:36:34;100916.34;;;-2.58;72.16
79463;BME280;68931;47.286;18.756;2023-04-06T01:37:04;100928.34;;;-2.51;72.79
79463;BME280;68931;47.286;18.756;2023-04-06T01:37:35;100905.19;;;-2.63;71.96
79463;BME280;68931;47.286;18.756;2023-04-06T01:38:10;100888.06;;;-2.73;71.99
79463;BME280;68931;47.286;18.756;2023-04-06T01:38:40;100913.78;;;-2.58;72.00
79463;BME280;68931;47.286;18.756;2023-04-06T01:39:11;100917.19;;;-2.54;72.65
79463;BME280;68931;47.286;18.756;2023-04-06T01:39:43;100902.63;;;-2.60;72.65
79463;BME280;68931;47.286;18.756;2023-04-06T01:40:17;100888.06;;;-2.76;72.86
79463;BME280;68931;47.286;18.756;2023-04-06T01:40:48;100923.19;;;-2.54;73.12
79463;BME280;68931;47.286;18.756;2023-04-06T01:41:19;100908.63;;;-2.61;72.99
79463;BME280;68931;47.286;18.756;2023-04-06T01:41:50;100912.91;;;-2.60;72.32
79463;BME280;68931;47.286;18.756;2023-04-06T01:42:21;100906.06;;;-2.64;72.43
79463;BME280;68931;47.286;18.756;2023-04-06T01:42:51;100912.06;;;-2.59;72.41
79463;BME280;68931;47.286;18.756;2023-04-06T01:43:22;100899.22;;;-2.67;72.00
79463;BME280;68931;47.286;18.756;2023-04-06T01:43:53;100930.91;;;-2.45;72.15
79463;BME280;68931;47.286;18.756;2023-04-06T01:44:24;100919.75;;;-2.54;71.79
79463;BME280;68931;47.286;18.756;2023-04-06T01:44:55;100906.06;;;-2.64;72.43
79463;BME280;68931;47.286;18.756;2023-04-06T01:45:26;100931.78;;;-2.47;71.97
79463;BME280;68931;47.286;18.756;2023-04-06T01:45:56;100903.47;;;-2.67;72.15
79463;BME280;68931;47.286;18.756;2023-04-06T01:46:27;100916.34;;;-2.59;71.68
79463;BME280;68931;47.286;18.756;2023-04-06T01:46:58;100936.06;;;-2.49;71.27
79463;BME280;68931;47.286;18.756;2023-04-06T01:47:31;100919.78;;;-2.53;72.23
79463;BME280;68931;47.286;18.756;2023-04-06T01:48:02;100912.06;;;-2.60;71.87
79463;BME280;68931;47.286;18.756;2023-04-06T01:48:35;100907.75;;;-2.63;72.45
79463;BME280;68931;47.286;18.756;2023-04-06T01:49:06;100894.91;;;-2.69;72.17
79463;BME280;68931;47.286;18.756;2023-04-06T01:49:37;100896.63;;;-2.68;72.36
79463;BME280;68931;47.286;18.756;2023-04-06T01:50:08;100907.75;;;-2.63;72.04
79463;BME280;68931;47.286;18.756;2023-04-06T01:50:39;100922.34;;;-2.53;72.08
79463;BME280;68931;47.286;18.756;2023-04-06T01:51:10;100924.03;;;-2.59;72.19
79463;BME280;68931;47.286;18.756;2023-04-06T01:51:40;100922.34;;;-2.57;72.23
79463;BME280;68931;47.286;18.756;2023-04-06T01:52:11;100890.63;;;-2.76;71.33
79463;BME280;68931;47.286;18.756;2023-04-06T01:52:42;100899.19;;;-2.74;71.25
79463;BME280;68931;47.286;18.756;2023-04-06T01:53:13;100895.75;;;-2.70;71.56
79463;BME280;68931;47.286;18.756;2023-04-06T01:53:46;100903.47;;;-2.70;71.34
79463;BME280;68931;47.286;18.756;2023-04-06T01:54:21;100908.56;;;-2.78;72.21
79463;BME280;68931;47.286;18.756;2023-04-06T01:54:52;100898.28;;;-2.81;71.89
79463;BME280;68931;47.286;18.756;2023-04-06T01:55:23;100896.63;;;-2.74;73.15
79463;BME280;68931;47.286;18.756;2023-04-06T01:55:53;100910.34;;;-2.64;73.25
79463;BME280;68931;47.286;18.756;2023-04-06T01:56:24;100895.78;;;-2.73;72.60
79463;BME280;68931;47.286;18.756;2023-04-06T01:56:55;100924.03;;;-2.64;73.05
79463;BME280;68931;47.286;18.756;2023-04-06T01:57:26;100906.91;;;-2.68;72.68
79463;BME280;68931;47.286;18.756;2023-04-06T01:57:57;100890.63;;;-2.76;72.45
79463;BME280;68931;47.286;18.756;2023-04-06T01:58:27;100907.75;;;-2.68;72.53
79463;BME280;68931;47.286;18.756;2023-04-06T01:58:58;100919.72;;;-2.63;72.36
79463;BME280;68931;47.286;18.756;2023-04-06T01:59:29;100880.34;;;-2.82;72.17
79463;BME280;68931;47.286;18.756;2023-04-06T01:59:59;100878.63;;;-2.83;72.37
79463;BME280;68931;47.286;18.756;2023-04-06T02:00:30;100905.19;;;-2.66;72.75
79463;BME280;68931;47.286;18.756;2023-04-06T02:01:01;100918.94;;;-2.56;72.49
79463;BME280;68931;47.286;18.756;2023-04-06T02:01:31;100898.31;;;-2.72;72.08
79463;BME280;68931;47.286;18.756;2023-04-06T02:02:04;100917.19;;;-2.62;72.42
79463;BME280;68931;47.286;18.756;2023-04-06T02:02:35;100912.03;;;-2.67;72.78
79463;BME280;68931;47.286;18.756;2023-04-06T02:03:06;100917.19;;;-2.62;72.67
79463;BME280;68931;47.286;18.756;2023-04-06T02:03:36;100909.47;;;-2.67;73.35
79463;BME280;68931;47.286;18.756;2023-04-06T02:04:07;100923.19;;;-2.60;72.38
79463;BME280;68931;47.286;18.756;2023-04-06T02:04:38;100907.75;;;-2.69;72.91
79463;BME280;68931;47.286;18.756;2023-04-06T02:05:09;100883.75;;;-2.83;72.51
79463;BME280;68931;47.286;18.756;2023-04-06T02:05:39;100914.59;;;-2.67;72.88
79463;BME280;68931;47.286;18.756;2023-04-06T02:06:10;100914.59;;;-2.63;72.25
79463;BME280;68931;47.286;18.756;2023-04-06T02:06:41;100925.75;;;-2.60;72.72
79463;BME280;68931;47.286;18.756;2023-04-06T02:07:16;100924.88;;;-2.65;72.27
79463;BME280;68931;47.286;18.756;2023-04-06T02:07:47;100922.31;;;-2.68;72.84
79463;BME280;68931;47.286;18.756;2023-04-06T02:08:19;100906.00;;;-2.79;72.58
79463;BME280;68931;47.286;18.756;2023-04-06T02:08:50;100928.28;;;-2.68;72.81
79463;BME280;68931;47.286;18.756;2023-04-06T02:09:20;100906.84;;;-2.80;72.01
79463;BME280;68931;47.286;18.756;2023-04-06T02:09:54;100915.44;;;-2.74;72.38
79463;BME280;68931;47.286;18.756;2023-04-06T02:10:28;100923.16;;;-2.69;72.56
79463;BME280;68931;47.286;18.756;2023-04-06T02:10:59;100903.44;;;-2.84;71.92
79463;BME280;68931;47.286;18.756;2023-04-06T02:11:29;100901.72;;;-2.79;72.30
79463;BME280;68931;47.286;18.756;2023-04-06T02:12:03;100896.59;;;-2.82;72.85
79463;BME280;68931;47.286;18.756;2023-04-06T02:12:34;100899.16;;;-2.80;72.76
79463;BME280;68931;47.286;18.756;2023-04-06T02:13:04;100888.91;;;-2.83;72.84
79463;BME280;68931;47.286;18.756;2023-04-06T02:13:35;100902.56;;;-2.80;72.86
79463;BME280;68931;47.286;18.756;2023-04-06T02:14:06;100876.00;;;-2.89;73.08
79463;BME280;68931;47.286;18.756;2023-04-06T02:14:36;100882.88;;;-2.85;72.81
79463;BME280;68931;47.286;18.756;2023-04-06T02:15:10;100910.28;;;-2.72;73.10
79463;BME280;68931;47.286;18.756;2023-04-06T02:15:43;100882.00;;;-2.93;72.48
79463;BME280;68931;47.286;18.756;2023-04-06T02:16:14;100916.31;;;-2.69;72.68
79463;BME280;68931;47.286;18.756;2023-04-06T02:16:46;100893.19;;;-2.82;72.48
79463;BME280;68931;47.286;18.756;2023-04-06T02:17:16;100908.59;;;-2.72;72.25
79463;BME280;68931;47.286;18.756;2023-04-06T02:17:47;100886.34;;;-2.82;72.26
79463;BME280;68931;47.286;18.756;2023-04-06T02:18:18;100890.59;;;-2.82;72.58
79463;BME280;68931;47.286;18.756;2023-04-06T02:18:49;100876.00;;;-2.97;71.91
79463;BME280;68931;47.286;18.756;2023-04-06T02:19:21;100885.44;;;-2.85;72.38
79463;BME280;68931;47.286;18.756;2023-04-06T02:19:52;100894.03;;;-2.83;72.59
79463;BME280;68931;47.286;18.756;2023-04-06T02:20:23;100877.72;;;-2.88;71.87
79463;BME280;68931;47.286;18.756;2023-04-06T02:20:54;100875.16;;;-2.94;72.52
79463;BME280;68931;47.286;18.756;2023-04-06T02:21:24;100881.16;;;-2.89;72.33
79463;BME280;68931;47.286;18.756;2023-04-06T02:21:55;100879.47;;;-2.86;72.35
79463;BME280;68931;47.286;18.756;2023-04-06T02:22:26;100905.16;;;-2.71;72.55
79463;BME280;68931;47.286;18.756;2023-04-06T02:22:58;100911.16;;;-2.70;72.34
79463;BME280;68931;47.286;18.756;2023-04-06T02:23:30;100885.47;;;-2.82;72.46
79463;BME280;68931;47.286;18.756;2023-04-06T02:24:04;100901.75;;;-2.74;72.59
79463;BME280;68931;47.286;18.756;2023-04-06T02:24:35;100891.44;;;-2.85;72.31
79463;BME280;68931;47.286;18.756;2023-04-06T02:25:07;100917.16;;;-2.71;71.87
79463;BME280;68931;47.286;18.756;2023-04-06T02:25:38;100899.16;;;-2.77;72.23
79463;BME280;68931;47.286;18.756;2023-04-06T02:26:08;100905.16;;;-2.75;71.70
79463;BME280;68931;47.286;18.756;2023-04-06T02:26:39;100912.03;;;-2.74;71.31
79463;BME280;68931;47.286;18.756;2023-04-06T02:27:10;100902.56;;;-2.80;71.78
79463;BME280;68931;47.286;18.756;2023-04-06T02:27:41;100878.59;;;-2.88;72.05
79463;BME280;68931;47.286;18.756;2023-04-06T02:28:12;100873.44;;;-2.89;72.14
79463;BME280;68931;47.286;18.756;2023-04-06T02:28:45;100894.03;;;-2.77;71.80
79463;BME280;68931;47.286;18.756;2023-04-06T02:29:16;100876.91;;;-2.90;71.77
79463;BME280;68931;47.286;18.756;2023-04-06T02:29:47;100889.72;;;-2.87;71.85
79463;BME280;68931;47.286;18.756;2023-04-06T02:30:17;100921.41;;;-2.72;72.58
79463;BME280;68931;47.286;18.756;2023-04-06T02:30:48;100918.00;;;-2.72;72.31
79463;BME280;68931;47.286;18.756;2023-04-06T02:31:19;100882.88;;;-2.93;72.63
79463;BME280;68931;47.286;18.756;2023-04-06T02:31:49;100888.84;;;-2.89;71.86
79463;BME280;68931;47.286;18.756;2023-04-06T02:32:20;100878.56;;;-2.97;72.01
79463;BME280;68931;47.286;18.756;2023-04-06T02:32:51;100867.44;;;-3.02;72.19
79463;BME280;68931;47.286;18.756;2023-04-06T02:33:22;100891.44;;;-2.86;71.92
79463;BME280;68931;47.286;18.756;2023-04-06T02:33:52;100868.28;;;-2.98;71.84
79463;BME280;68931;47.286;18.756;2023-04-06T02:34:23;100899.16;;;-2.82;71.77
79463;BME280;68931;47.286;18.756;2023-04-06T02:34:53;100889.72;;;-2.87;72.07
79463;BME280;68931;47.286;18.756;2023-04-06T02:35:25;100885.44;;;-2.85;72.54
79463;BME280;68931;47.286;18.756;2023-04-06T02:35:56;100883.72;;;-2.89;72.33
79463;BME280;68931;47.286;18.756;2023-04-06T02:36:26;100902.56;;;-2.81;72.41
79463;BME280;68931;47.286;18.756;2023-04-06T02:36:57;100858.84;;;-3.06;72.51
79463;BME280;68931;47.286;18.756;2023-04-06T02:37:30;100887.16;;;-2.87;72.12
79463;BME280;68931;47.286;18.756;2023-04-06T02:38:01;100863.16;;;-3.09;71.92
79463;BME280;68931;47.286;18.756;2023-04-06T02:38:32;100869.16;;;-3.01;72.47
79463;BME280;68931;47.286;18.756;2023-04-06T02:39:02;100886.28;;;-2.94;73.09
79463;BME280;68931;47.286;18.756;2023-04-06T02:39:33;100895.69;;;-2.94;73.22
79463;BME280;68931;47.286;18.756;2023-04-06T02:40:04;100883.69;;;-3.00;73.41
79463;BME280;68931;47.286;18.756;2023-04-06T02:40:36;100871.69;;;-3.06;72.86
79463;BME280;68931;47.286;18.756;2023-04-06T02:41:07;100900.00;;;-2.90;72.64